createdAt,value
2019-05-19T00:00:43.723Z,991.81
2019-05-19T00:01:43.733Z,991.88
2019-05-19T00:02:43.701Z,991.85
2019-05-19T00:03:43.725Z,991.83
2019-05-19T00:04:43.689Z,991.75
2019-05-19T00:05:43.692Z,991.76
2019-05-19T00:06:43.678Z,991.71
2019-05-19T00:07:43.661Z,991.79
2019-05-19T00:08:43.650Z,991.78
2019-05-19T00:09:43.643Z,991.79
2019-05-19T00:10:43.641Z,991.78
2019-05-19T00:11:43.627Z,991.73
2019-05-19T00:12:43.714Z,991.69
2019-05-19T00:13:43.632Z,991.67
2019-05-19T00:14:43.632Z,991.74
2019-05-19T00:15:43.621Z,991.74
2019-05-19T00:16:43.605Z,991.74
2019-05-19T00:17:43.602Z,991.79
2019-05-19T00:18:43.596Z,991.79
2019-05-19T00:19:43.585Z,991.76
2019-05-19T00:20:43.575Z,991.78
2019-05-19T00:21:43.570Z,991.78
2019-05-19T00:22:43.561Z,991.70
2019-05-19T00:23:43.555Z,991.75
2019-05-19T00:24:43.584Z,991.68
2019-05-19T00:25:43.559Z,991.66
2019-05-19T00:26:43.658Z,991.67
2019-05-19T00:27:43.546Z,991.70
2019-05-19T00:28:43.553Z,991.78
2019-05-19T00:29:43.551Z,991.74
2019-05-19T00:30:43.563Z,991.70
2019-05-19T00:31:43.536Z,991.71
2019-05-19T00:32:43.541Z,991.67
2019-05-19T00:33:43.518Z,991.68
2019-05-19T00:34:43.508Z,991.69
2019-05-19T00:35:43.498Z,991.65
2019-05-19T00:36:43.491Z,991.66
2019-05-19T00:37:43.590Z,991.64
2019-05-19T00:38:43.475Z,991.67
2019-05-19T00:39:43.469Z,991.64
2019-05-19T00:40:43.460Z,991.63
2019-05-19T00:41:43.507Z,991.60
2019-05-19T00:42:43.710Z,991.57
2019-05-19T00:43:43.524Z,991.63
2019-05-19T00:44:43.440Z,991.56
2019-05-19T00:45:43.425Z,991.56
2019-05-19T00:46:43.433Z,991.53
2019-05-19T00:47:43.419Z,991.54
2019-05-19T00:48:43.548Z,991.51
2019-05-19T00:49:43.405Z,991.49
2019-05-19T00:50:43.401Z,991.53
2019-05-19T00:51:43.400Z,991.49
2019-05-19T00:52:43.397Z,991.51
2019-05-19T00:53:43.385Z,991.49
2019-05-19T00:54:43.371Z,991.45
2019-05-19T00:55:43.358Z,991.46
2019-05-19T00:56:43.354Z,991.47
2019-05-19T00:57:43.347Z,991.46
2019-05-19T00:58:43.365Z,991.48
2019-05-19T00:59:43.344Z,991.47
2019-05-19T01:00:43.441Z,991.44
2019-05-19T01:01:43.331Z,991.46
2019-05-19T01:02:43.308Z,991.48
2019-05-19T01:03:43.300Z,991.43
2019-05-19T01:04:43.307Z,991.40
2019-05-19T01:05:43.293Z,991.41
2019-05-19T01:06:43.278Z,991.43
2019-05-19T01:07:43.269Z,991.37
2019-05-19T01:08:43.263Z,991.40
2019-05-19T01:09:43.262Z,991.38
2019-05-19T01:10:43.273Z,991.33
2019-05-19T01:11:43.241Z,991.33
2019-05-19T01:12:43.231Z,991.29
2019-05-19T01:13:43.224Z,991.27
2019-05-19T01:14:43.217Z,991.25
2019-05-19T01:15:43.209Z,991.25
2019-05-19T01:16:43.233Z,991.26
2019-05-19T01:17:43.214Z,991.22
2019-05-19T01:18:43.209Z,991.18
2019-05-19T01:19:55.341Z,991.21
2019-05-19T01:20:44.191Z,991.20
2019-05-19T01:21:43.273Z,991.15
2019-05-19T01:22:43.186Z,991.15
2019-05-19T01:23:43.167Z,991.11
2019-05-19T01:24:43.159Z,991.07
2019-05-19T01:25:43.154Z,991.10
2019-05-19T01:26:43.179Z,991.02
2019-05-19T01:27:43.142Z,991.15
2019-05-19T01:28:43.147Z,990.97
2019-05-19T01:29:43.121Z,991.00
2019-05-19T01:30:43.112Z,990.98
2019-05-19T01:31:43.101Z,991.03
2019-05-19T01:32:43.189Z,991.05
2019-05-19T01:33:43.085Z,991.04
2019-05-19T01:34:43.081Z,991.01
2019-05-19T01:35:43.068Z,990.99
2019-05-19T01:36:43.065Z,991.05
2019-05-19T01:37:43.061Z,990.98
2019-05-19T01:38:43.051Z,991.06
2019-05-19T01:39:43.039Z,991.07
2019-05-19T01:40:43.039Z,991.05
2019-05-19T01:41:43.029Z,991.09
2019-05-19T01:42:43.012Z,991.08
2019-05-19T01:43:43.012Z,991.08
2019-05-19T01:44:42.996Z,990.97
2019-05-19T01:45:43.000Z,990.99
2019-05-19T01:46:43.012Z,991.01
2019-05-19T01:47:42.979Z,991.01
2019-05-19T01:48:43.013Z,991.02
2019-05-19T01:49:42.961Z,991.03
2019-05-19T01:50:42.961Z,991.06
2019-05-19T01:51:42.953Z,991.09
2019-05-19T01:52:42.947Z,991.06
2019-05-19T01:53:42.968Z,991.13
2019-05-19T01:54:43.037Z,991.04
2019-05-19T01:55:42.919Z,991.09
2019-05-19T01:56:42.913Z,991.13
2019-05-19T01:57:42.911Z,991.03
2019-05-19T01:58:42.898Z,991.01
2019-05-19T01:59:42.892Z,990.97
2019-05-19T02:00:42.923Z,990.95
2019-05-19T02:01:42.881Z,990.98
2019-05-19T02:02:42.872Z,990.87
2019-05-19T02:03:42.879Z,990.92
2019-05-19T02:04:42.865Z,990.93
2019-05-19T02:05:42.954Z,990.94
2019-05-19T02:06:42.858Z,990.93
2019-05-19T02:07:42.841Z,990.89
2019-05-19T02:08:42.840Z,990.98
2019-05-19T02:09:42.887Z,990.90
2019-05-19T02:10:42.816Z,990.89
2019-05-19T02:11:42.818Z,990.92
2019-05-19T02:12:42.824Z,990.93
2019-05-19T02:13:42.795Z,990.92
2019-05-19T02:14:42.785Z,991.01
2019-05-19T02:15:42.791Z,991.00
2019-05-19T02:16:42.798Z,990.98
2019-05-19T02:17:42.771Z,991.00
2019-05-19T02:18:42.770Z,991.03
2019-05-19T02:19:42.759Z,990.95
2019-05-19T02:20:42.749Z,991.00
2019-05-19T02:21:42.742Z,991.00
2019-05-19T02:22:42.737Z,990.98
2019-05-19T02:23:42.721Z,991.02
2019-05-19T02:24:42.744Z,991.00
2019-05-19T02:25:42.775Z,991.10
2019-05-19T02:26:42.707Z,991.07
2019-05-19T02:27:42.711Z,990.98
2019-05-19T02:28:42.701Z,991.02
2019-05-19T02:29:42.708Z,990.99
2019-05-19T02:30:42.696Z,991.07
2019-05-19T02:31:42.672Z,991.04
2019-05-19T02:32:42.664Z,991.06
2019-05-19T02:33:42.665Z,991.10
2019-05-19T02:34:42.651Z,991.10
2019-05-19T02:35:42.646Z,991.01
2019-05-19T02:36:42.643Z,991.05
2019-05-19T02:37:42.658Z,991.14
2019-05-19T02:38:42.662Z,991.13
2019-05-19T02:39:42.651Z,991.10
2019-05-19T02:40:42.626Z,991.14
2019-05-19T02:41:42.625Z,991.16
2019-05-19T02:42:42.605Z,991.13
2019-05-19T02:43:42.602Z,991.17
2019-05-19T02:44:42.600Z,991.16
2019-05-19T02:45:42.593Z,991.19
2019-05-19T02:46:42.588Z,991.19
2019-05-19T02:47:42.585Z,991.16
2019-05-19T02:48:42.568Z,991.18
2019-05-19T02:49:42.592Z,991.19
2019-05-19T02:50:52.113Z,991.17
2019-05-19T02:51:43.556Z,991.20
2019-05-19T02:52:42.565Z,991.20
2019-05-19T02:53:42.552Z,991.23
2019-05-19T02:54:42.558Z,991.21
2019-05-19T02:55:42.531Z,991.24
2019-05-19T02:56:42.519Z,991.20
2019-05-19T02:57:42.512Z,991.22
2019-05-19T02:58:42.503Z,991.25
2019-05-19T02:59:42.499Z,991.21
2019-05-19T03:00:42.615Z,991.30
2019-05-19T03:01:42.605Z,991.28
2019-05-19T03:02:42.497Z,991.29
2019-05-19T03:03:42.490Z,991.30
2019-05-19T03:04:42.482Z,991.31
2019-05-19T03:05:42.476Z,991.32
2019-05-19T03:06:42.484Z,991.26
2019-05-19T03:07:42.489Z,991.29
2019-05-19T03:08:42.457Z,991.26
2019-05-19T03:09:42.457Z,991.33
2019-05-19T03:10:42.441Z,991.35
2019-05-19T03:11:42.441Z,991.34
2019-05-19T03:12:42.425Z,991.31
2019-05-19T03:13:42.447Z,991.36
2019-05-19T03:14:42.401Z,991.33
2019-05-19T03:15:42.403Z,991.33
2019-05-19T03:16:42.391Z,991.30
2019-05-19T03:17:42.388Z,991.34
2019-05-19T03:18:42.389Z,991.35
2019-05-19T03:19:42.363Z,991.30
2019-05-19T03:20:42.357Z,991.30
2019-05-19T03:21:42.346Z,991.28
2019-05-19T03:22:42.365Z,991.28
2019-05-19T03:23:42.438Z,991.27
2019-05-19T03:24:42.347Z,991.25
2019-05-19T03:25:44.243Z,991.27
2019-05-19T03:26:42.329Z,991.24
2019-05-19T03:27:42.407Z,991.24
2019-05-19T03:28:42.334Z,991.26
2019-05-19T03:29:42.303Z,991.23
2019-05-19T03:30:42.302Z,991.24
2019-05-19T03:31:42.323Z,991.29
2019-05-19T03:32:42.305Z,991.26
2019-05-19T03:33:42.312Z,991.31
2019-05-19T03:34:42.301Z,991.23
2019-05-19T03:35:42.279Z,991.24
2019-05-19T03:36:42.273Z,991.23
2019-05-19T03:37:42.278Z,991.27
2019-05-19T03:38:42.344Z,991.26
2019-05-19T03:39:42.253Z,991.22
2019-05-19T03:40:42.243Z,991.25
2019-05-19T03:41:42.245Z,991.26
2019-05-19T03:42:42.242Z,991.24
2019-05-19T03:43:42.228Z,991.23
2019-05-19T03:44:42.258Z,991.25
2019-05-19T03:45:42.235Z,991.31
2019-05-19T03:46:42.222Z,991.26
2019-05-19T03:47:42.216Z,991.30
2019-05-19T03:48:42.209Z,991.35
2019-05-19T03:49:42.202Z,991.31
2019-05-19T03:50:42.196Z,991.30
2019-05-19T03:51:42.177Z,991.28
2019-05-19T03:52:42.203Z,991.27
2019-05-19T03:53:42.160Z,991.26
2019-05-19T03:54:42.197Z,991.26
2019-05-19T03:55:42.173Z,991.27
2019-05-19T03:56:42.160Z,991.27
2019-05-19T03:57:42.175Z,991.34
2019-05-19T03:58:42.151Z,991.31
2019-05-19T03:59:42.137Z,991.30
2019-05-19T04:00:42.214Z,991.30
2019-05-19T04:01:42.131Z,991.34
2019-05-19T04:02:42.140Z,991.27
2019-05-19T04:03:42.114Z,991.32
2019-05-19T04:04:42.101Z,991.29
2019-05-19T04:05:42.089Z,991.28
2019-05-19T04:06:42.096Z,991.30
2019-05-19T04:07:42.078Z,991.33
2019-05-19T04:08:42.079Z,991.32
2019-05-19T04:09:42.063Z,991.32
2019-05-19T04:10:42.056Z,991.34
2019-05-19T04:11:42.055Z,991.38
2019-05-19T04:12:42.039Z,991.36
2019-05-19T04:13:42.044Z,991.41
2019-05-19T04:14:42.033Z,991.48
2019-05-19T04:15:42.071Z,991.42
2019-05-19T04:16:42.041Z,991.38
2019-05-19T04:17:42.018Z,991.42
2019-05-19T04:18:42.001Z,991.38
2019-05-19T04:19:42.000Z,991.47
2019-05-19T04:20:41.999Z,991.43
2019-05-19T04:21:48.749Z,991.46
2019-05-19T04:22:43.010Z,991.51
2019-05-19T04:23:41.959Z,991.48
2019-05-19T04:24:41.955Z,991.45
2019-05-19T04:25:41.944Z,991.50
2019-05-19T04:26:41.957Z,991.54
2019-05-19T04:27:41.933Z,991.55
2019-05-19T04:28:41.953Z,991.48
2019-05-19T04:29:41.919Z,991.51
2019-05-19T04:30:41.905Z,991.49
2019-05-19T04:31:41.909Z,991.52
2019-05-19T04:32:41.915Z,991.56
2019-05-19T04:33:41.911Z,991.50
2019-05-19T04:34:41.907Z,991.50
2019-05-19T04:35:41.916Z,991.54
2019-05-19T04:36:41.877Z,991.51
2019-05-19T04:37:41.867Z,991.47
2019-05-19T04:38:41.859Z,991.54
2019-05-19T04:39:41.874Z,991.53
2019-05-19T04:40:41.865Z,991.48
2019-05-19T04:41:41.906Z,991.53
2019-05-19T04:42:41.846Z,991.57
2019-05-19T04:43:41.838Z,991.52
2019-05-19T04:44:41.837Z,991.55
2019-05-19T04:45:41.829Z,991.58
2019-05-19T04:46:41.821Z,991.58
2019-05-19T04:47:41.836Z,991.58
2019-05-19T04:48:41.796Z,991.59
2019-05-19T04:49:41.805Z,991.61
2019-05-19T04:50:41.787Z,991.57
2019-05-19T04:51:41.780Z,991.61
2019-05-19T04:52:41.770Z,991.61
2019-05-19T04:53:41.783Z,991.63
2019-05-19T04:54:41.758Z,991.65
2019-05-19T04:55:41.775Z,991.71
2019-05-19T04:56:41.748Z,991.72
2019-05-19T04:57:41.753Z,991.66
2019-05-19T04:58:41.742Z,991.66
2019-05-19T04:59:41.730Z,991.60
2019-05-19T05:00:41.727Z,991.69
2019-05-19T05:01:41.724Z,991.66
2019-05-19T05:02:41.728Z,991.71
2019-05-19T05:03:41.701Z,991.64
2019-05-19T05:04:41.696Z,991.72
2019-05-19T05:05:41.712Z,991.67
2019-05-19T05:06:41.721Z,991.72
2019-05-19T05:07:41.698Z,991.61
2019-05-19T05:08:41.706Z,991.63
2019-05-19T05:09:41.676Z,991.66
2019-05-19T05:10:41.672Z,991.69
2019-05-19T05:11:41.657Z,991.61
2019-05-19T05:12:41.665Z,991.62
2019-05-19T05:13:41.673Z,991.65
2019-05-19T05:14:41.639Z,991.61
2019-05-19T05:15:41.629Z,991.58
2019-05-19T05:16:41.647Z,991.62
2019-05-19T05:17:41.985Z,991.63
2019-05-19T05:18:41.608Z,991.64
2019-05-19T05:19:41.601Z,991.66
2019-05-19T05:20:41.608Z,991.62
2019-05-19T05:21:41.593Z,991.60
2019-05-19T05:22:41.579Z,991.62
2019-05-19T05:23:41.577Z,991.60
2019-05-19T05:24:41.576Z,991.57
2019-05-19T05:25:41.553Z,991.63
2019-05-19T05:26:41.542Z,991.57
2019-05-19T05:27:41.536Z,991.58
2019-05-19T05:28:41.539Z,991.55
2019-05-19T05:29:41.517Z,991.54
2019-05-19T05:30:41.507Z,991.58
2019-05-19T05:31:41.517Z,991.59
2019-05-19T05:32:41.497Z,991.58
2019-05-19T05:33:41.486Z,991.57
2019-05-19T05:34:41.486Z,991.61
2019-05-19T05:35:41.470Z,991.59
2019-05-19T05:36:41.467Z,991.61
2019-05-19T05:37:41.454Z,991.60
2019-05-19T05:38:41.466Z,991.58
2019-05-19T05:39:41.465Z,991.57
2019-05-19T05:40:41.431Z,991.57
2019-05-19T05:41:41.450Z,991.60
2019-05-19T05:42:41.443Z,991.59
2019-05-19T05:43:41.437Z,991.55
2019-05-19T05:44:41.425Z,991.58
2019-05-19T05:45:41.419Z,991.57
2019-05-19T05:46:41.405Z,991.63
2019-05-19T05:47:41.416Z,991.59
2019-05-19T05:48:41.385Z,991.55
2019-05-19T05:49:41.381Z,991.60
2019-05-19T05:50:41.471Z,991.56
2019-05-19T05:51:41.361Z,991.56
2019-05-19T05:52:41.356Z,991.59
2019-05-19T05:53:41.348Z,991.62
2019-05-19T05:54:41.385Z,991.61
2019-05-19T05:55:41.334Z,991.63
2019-05-19T05:56:41.332Z,991.59
2019-05-19T05:57:41.319Z,991.55
2019-05-19T05:58:41.323Z,991.59
2019-05-19T05:59:41.300Z,991.59
2019-05-19T06:00:41.292Z,991.56
2019-05-19T06:01:41.354Z,991.54
2019-05-19T06:02:41.328Z,991.57
2019-05-19T06:03:41.265Z,991.50
2019-05-19T06:04:41.256Z,991.55
2019-05-19T06:05:41.277Z,991.46
2019-05-19T06:06:41.263Z,991.51
2019-05-19T06:07:41.262Z,991.49
2019-05-19T06:08:41.246Z,991.48
2019-05-19T06:09:41.246Z,991.56
2019-05-19T06:10:41.247Z,991.48
2019-05-19T06:11:41.261Z,991.46
2019-05-19T06:12:41.230Z,991.50
2019-05-19T06:13:41.222Z,991.52
2019-05-19T06:14:41.209Z,991.56
2019-05-19T06:15:41.202Z,991.50
2019-05-19T06:16:41.191Z,991.49
2019-05-19T06:17:41.187Z,991.54
2019-05-19T06:18:41.201Z,991.53
2019-05-19T06:19:41.172Z,991.56
2019-05-19T06:20:41.163Z,991.51
2019-05-19T06:21:41.148Z,991.56
2019-05-19T06:22:55.171Z,991.58
2019-05-19T06:23:42.231Z,991.55
2019-05-19T06:24:41.141Z,991.56
2019-05-19T06:25:41.163Z,991.52
2019-05-19T06:26:41.122Z,991.57
2019-05-19T06:27:41.118Z,991.59
2019-05-19T06:28:41.107Z,991.55
2019-05-19T06:29:41.126Z,991.60
2019-05-19T06:30:41.113Z,991.62
2019-05-19T06:31:41.125Z,991.60
2019-05-19T06:32:41.100Z,991.60
2019-05-19T06:33:41.092Z,991.60
2019-05-19T06:34:41.102Z,991.64
2019-05-19T06:35:41.086Z,991.64
2019-05-19T06:36:41.096Z,991.69
2019-05-19T06:37:41.097Z,991.66
2019-05-19T06:38:41.085Z,991.57
2019-05-19T06:39:41.069Z,991.59
2019-05-19T06:40:41.069Z,991.64
2019-05-19T06:41:41.054Z,991.64
2019-05-19T06:42:41.051Z,991.65
2019-05-19T06:43:41.060Z,991.64
2019-05-19T06:44:41.039Z,991.65
2019-05-19T06:45:41.162Z,991.64
2019-05-19T06:46:41.020Z,991.64
2019-05-19T06:47:41.019Z,991.61
2019-05-19T06:48:41.010Z,991.68
2019-05-19T06:49:41.061Z,991.63
2019-05-19T06:50:41.145Z,991.62
2019-05-19T06:51:40.985Z,991.65
2019-05-19T06:52:40.976Z,991.62
2019-05-19T06:53:40.962Z,991.63
2019-05-19T06:54:40.959Z,991.65
2019-05-19T06:55:40.967Z,991.63
2019-05-19T06:56:40.976Z,991.64
2019-05-19T06:57:40.968Z,991.63
2019-05-19T06:58:40.957Z,991.64
2019-05-19T06:59:40.944Z,991.65
2019-05-19T07:00:40.937Z,991.60
2019-05-19T07:01:40.926Z,991.66
2019-05-19T07:02:40.937Z,991.60
2019-05-19T07:03:40.917Z,991.62
2019-05-19T07:04:40.921Z,991.65
2019-05-19T07:05:40.916Z,991.65
2019-05-19T07:06:40.933Z,991.62
2019-05-19T07:07:40.915Z,991.66
2019-05-19T07:08:40.920Z,991.64
2019-05-19T07:09:40.891Z,991.63
2019-05-19T07:10:40.882Z,991.64
2019-05-19T07:11:40.880Z,991.67
2019-05-19T07:12:40.868Z,991.65
2019-05-19T07:13:40.864Z,991.63
2019-05-19T07:14:40.853Z,991.60
2019-05-19T07:15:40.882Z,991.65
2019-05-19T07:16:40.838Z,991.62
2019-05-19T07:17:40.827Z,991.54
2019-05-19T07:18:40.912Z,991.55
2019-05-19T07:19:40.816Z,991.58
2019-05-19T07:20:40.811Z,991.60
2019-05-19T07:21:40.821Z,991.55
2019-05-19T07:22:40.797Z,991.55
2019-05-19T07:23:40.785Z,991.55
2019-05-19T07:24:40.778Z,991.56
2019-05-19T07:25:40.765Z,991.55
2019-05-19T07:26:40.762Z,991.47
2019-05-19T07:27:40.775Z,991.52
2019-05-19T07:28:40.764Z,991.51
2019-05-19T07:29:40.856Z,991.51
2019-05-19T07:30:40.746Z,991.49
2019-05-19T07:31:40.750Z,991.51
2019-05-19T07:32:40.739Z,991.52
2019-05-19T07:33:40.727Z,991.48
2019-05-19T07:34:40.721Z,991.49
2019-05-19T07:35:40.716Z,991.53
2019-05-19T07:36:40.704Z,991.48
2019-05-19T07:37:40.693Z,991.50
2019-05-19T07:38:40.710Z,991.50
2019-05-19T07:39:40.683Z,991.46
2019-05-19T07:40:40.681Z,991.46
2019-05-19T07:41:40.666Z,991.57
2019-05-19T07:42:40.654Z,991.49
2019-05-19T07:43:40.652Z,991.55
2019-05-19T07:44:40.655Z,991.52
2019-05-19T07:45:40.652Z,991.46
2019-05-19T07:46:40.652Z,991.40
2019-05-19T07:47:40.643Z,991.44
2019-05-19T07:48:40.634Z,991.44
2019-05-19T07:49:40.653Z,991.44
2019-05-19T07:50:40.626Z,991.36
2019-05-19T07:51:40.627Z,991.39
2019-05-19T07:52:40.621Z,991.46
2019-05-19T07:53:43.021Z,991.45
2019-05-19T07:54:40.579Z,991.38
2019-05-19T07:55:40.573Z,991.43
2019-05-19T07:56:40.652Z,991.42
2019-05-19T07:57:40.634Z,991.43
2019-05-19T07:58:40.557Z,991.44
2019-05-19T07:59:40.542Z,991.45
2019-05-19T08:00:40.533Z,991.44
2019-05-19T08:01:40.527Z,991.44
2019-05-19T08:02:40.522Z,991.47
2019-05-19T08:03:40.513Z,991.41
2019-05-19T08:04:40.515Z,991.41
2019-05-19T08:05:40.501Z,991.41
2019-05-19T08:06:40.498Z,991.38
2019-05-19T08:07:40.521Z,991.36
2019-05-19T08:08:40.485Z,991.41
2019-05-19T08:09:40.492Z,991.34
2019-05-19T08:10:40.492Z,991.35
2019-05-19T08:11:40.478Z,991.37
2019-05-19T08:12:40.464Z,991.35
2019-05-19T08:13:40.465Z,991.37
2019-05-19T08:14:40.446Z,991.37
2019-05-19T08:15:40.439Z,991.33
2019-05-19T08:16:40.442Z,991.30
2019-05-19T08:17:40.445Z,991.32
2019-05-19T08:18:40.434Z,991.34
2019-05-19T08:19:40.415Z,991.33
2019-05-19T08:20:40.414Z,991.32
2019-05-19T08:21:40.404Z,991.34
2019-05-19T08:22:40.399Z,991.36
2019-05-19T08:23:40.409Z,991.34
2019-05-19T08:24:40.395Z,991.36
2019-05-19T08:25:40.467Z,991.36
2019-05-19T08:26:40.373Z,991.37
2019-05-19T08:27:40.359Z,991.37
2019-05-19T08:28:40.355Z,991.38
2019-05-19T08:29:40.404Z,991.41
2019-05-19T08:30:40.610Z,991.38
2019-05-19T08:31:40.353Z,991.36
2019-05-19T08:32:40.347Z,991.37
2019-05-19T08:33:40.341Z,991.36
2019-05-19T08:34:40.329Z,991.35
2019-05-19T08:35:40.343Z,991.35
2019-05-19T08:36:40.314Z,991.34
2019-05-19T08:37:40.324Z,991.36
2019-05-19T08:38:40.317Z,991.31
2019-05-19T08:39:40.307Z,991.28
2019-05-19T08:40:40.312Z,991.27
2019-05-19T08:41:40.309Z,991.25
2019-05-19T08:42:40.294Z,991.26
2019-05-19T08:43:40.284Z,991.23
2019-05-19T08:44:40.276Z,991.22
2019-05-19T08:45:40.275Z,991.23
2019-05-19T08:46:40.261Z,991.22
2019-05-19T08:47:40.272Z,991.23
2019-05-19T08:48:40.249Z,991.16
2019-05-19T08:49:40.252Z,991.17
2019-05-19T08:50:40.228Z,991.21
2019-05-19T08:51:40.237Z,991.21
2019-05-19T08:52:40.263Z,991.21
2019-05-19T08:53:40.205Z,991.18
2019-05-19T08:54:40.208Z,991.23
2019-05-19T08:55:40.210Z,991.23
2019-05-19T08:56:40.303Z,991.27
2019-05-19T08:57:40.192Z,991.21
2019-05-19T08:58:40.184Z,991.24
2019-05-19T08:59:40.171Z,991.24
2019-05-19T09:00:40.172Z,991.29
2019-05-19T09:01:40.169Z,991.25
2019-05-19T09:02:40.195Z,991.23
2019-05-19T09:03:40.147Z,991.22
2019-05-19T09:04:40.144Z,991.22
2019-05-19T09:05:40.131Z,991.27
2019-05-19T09:06:40.120Z,991.21
2019-05-19T09:07:40.120Z,991.17
2019-05-19T09:08:40.120Z,991.20
2019-05-19T09:09:40.095Z,991.13
2019-05-19T09:10:40.087Z,991.13
2019-05-19T09:11:40.124Z,991.18
2019-05-19T09:12:40.072Z,991.13
2019-05-19T09:13:40.087Z,991.13
2019-05-19T09:14:40.094Z,991.13
2019-05-19T09:15:40.086Z,991.12
2019-05-19T09:16:40.071Z,991.16
2019-05-19T09:17:40.063Z,991.11
2019-05-19T09:18:40.142Z,991.05
2019-05-19T09:19:40.056Z,991.12
2019-05-19T09:20:40.076Z,991.06
2019-05-19T09:21:40.040Z,991.07
2019-05-19T09:22:40.027Z,991.05
2019-05-19T09:23:40.062Z,991.05
2019-05-19T09:24:40.038Z,991.03
2019-05-19T09:25:40.034Z,991.06
2019-05-19T09:26:40.019Z,991.07
2019-05-19T09:27:40.038Z,991.05
2019-05-19T09:28:40.084Z,991.02
2019-05-19T09:29:40.017Z,991.03
2019-05-19T09:30:40.026Z,991.02
2019-05-19T09:31:41.402Z,991.04
2019-05-19T09:32:39.989Z,990.98
2019-05-19T09:33:39.980Z,991.02
2019-05-19T09:34:39.994Z,991.05
2019-05-19T09:35:39.973Z,991.03
2019-05-19T09:36:39.954Z,991.00
2019-05-19T09:37:39.950Z,990.99
2019-05-19T09:38:39.939Z,990.97
2019-05-19T09:39:39.944Z,990.95
2019-05-19T09:40:39.949Z,990.98
2019-05-19T09:41:39.937Z,990.99
2019-05-19T09:42:39.988Z,990.93
2019-05-19T09:43:39.922Z,990.96
2019-05-19T09:44:39.928Z,991.00
2019-05-19T09:45:39.960Z,990.97
2019-05-19T09:46:39.930Z,990.96
2019-05-19T09:47:39.921Z,991.01
2019-05-19T09:48:39.914Z,990.93
2019-05-19T09:49:40.203Z,990.99
2019-05-19T09:50:39.909Z,990.96
2019-05-19T09:51:39.893Z,990.95
2019-05-19T09:52:39.886Z,990.95
2019-05-19T09:53:39.878Z,990.94
2019-05-19T09:54:45.280Z,990.91
2019-05-19T09:55:40.886Z,990.96
2019-05-19T09:56:39.952Z,990.95
2019-05-19T09:57:39.858Z,990.96
2019-05-19T09:58:39.849Z,990.95
2019-05-19T09:59:39.846Z,990.90
2019-05-19T10:00:39.840Z,990.86
2019-05-19T10:01:39.846Z,990.93
2019-05-19T10:02:39.830Z,990.84
2019-05-19T10:03:39.809Z,990.89
2019-05-19T10:04:39.820Z,990.83
2019-05-19T10:05:39.807Z,990.89
2019-05-19T10:06:39.800Z,990.82
2019-05-19T10:07:39.920Z,990.86
2019-05-19T10:08:39.800Z,990.80
2019-05-19T10:09:39.795Z,990.87
2019-05-19T10:10:39.784Z,990.79
2019-05-19T10:11:39.774Z,990.82
2019-05-19T10:12:39.767Z,990.83
2019-05-19T10:13:39.795Z,990.82
2019-05-19T10:14:39.763Z,990.81
2019-05-19T10:15:39.751Z,990.81
2019-05-19T10:16:39.769Z,990.80
2019-05-19T10:17:39.760Z,990.78
2019-05-19T10:18:39.788Z,990.81
2019-05-19T10:19:39.747Z,990.80
2019-05-19T10:20:39.739Z,990.83
2019-05-19T10:21:39.729Z,990.82
2019-05-19T10:22:39.718Z,990.84
2019-05-19T10:23:39.839Z,990.82
2019-05-19T10:24:39.716Z,990.78
2019-05-19T10:25:39.693Z,990.78
2019-05-19T10:26:39.687Z,990.81
2019-05-19T10:27:39.749Z,990.81
2019-05-19T10:28:39.670Z,990.77
2019-05-19T10:29:39.694Z,990.77
2019-05-19T10:30:39.678Z,990.80
2019-05-19T10:31:39.720Z,990.71
2019-05-19T10:32:39.666Z,990.71
2019-05-19T10:33:39.656Z,990.73
2019-05-19T10:34:39.659Z,990.72
2019-05-19T10:35:39.639Z,990.78
2019-05-19T10:36:39.630Z,990.68
2019-05-19T10:37:39.641Z,990.69
2019-05-19T10:38:39.651Z,990.72
2019-05-19T10:39:39.634Z,990.72
2019-05-19T10:40:39.606Z,990.70
2019-05-19T10:41:39.591Z,990.67
2019-05-19T10:42:39.588Z,990.73
2019-05-19T10:43:39.592Z,990.75
2019-05-19T10:44:39.573Z,990.68
2019-05-19T10:45:39.665Z,990.70
2019-05-19T10:46:39.578Z,990.76
2019-05-19T10:47:39.563Z,990.72
2019-05-19T10:48:39.565Z,990.69
2019-05-19T10:49:42.765Z,990.68
2019-05-19T10:50:39.612Z,990.70
2019-05-19T10:51:39.534Z,990.70
2019-05-19T10:52:39.523Z,990.69
2019-05-19T10:53:39.516Z,990.67
2019-05-19T10:54:39.503Z,990.66
2019-05-19T10:55:39.505Z,990.65
2019-05-19T10:56:39.543Z,990.71
2019-05-19T10:57:39.483Z,990.67
2019-05-19T10:58:39.472Z,990.69
2019-05-19T10:59:39.466Z,990.71
2019-05-19T11:00:39.460Z,990.71
2019-05-19T11:01:39.450Z,990.72
2019-05-19T11:02:39.446Z,990.67
2019-05-19T11:03:39.434Z,990.66
2019-05-19T11:04:39.444Z,990.68
2019-05-19T11:05:39.420Z,990.71
2019-05-19T11:06:39.414Z,990.68
2019-05-19T11:07:39.419Z,990.71
2019-05-19T11:08:39.392Z,990.71
2019-05-19T11:09:39.393Z,990.68
2019-05-19T11:10:39.407Z,990.65
2019-05-19T11:11:39.381Z,990.63
2019-05-19T11:12:39.372Z,990.58
2019-05-19T11:13:39.391Z,990.60
2019-05-19T11:14:39.386Z,990.58
2019-05-19T11:15:39.373Z,990.53
2019-05-19T11:16:39.619Z,990.56
2019-05-19T11:17:39.356Z,990.56
2019-05-19T11:18:39.432Z,990.54
2019-05-19T11:19:39.341Z,990.57
2019-05-19T11:20:39.336Z,990.53
2019-05-19T11:21:39.325Z,990.54
2019-05-19T11:22:39.342Z,990.56
2019-05-19T11:23:39.309Z,990.55
2019-05-19T11:24:39.303Z,990.49
2019-05-19T11:25:50.988Z,990.47
2019-05-19T11:26:40.288Z,990.47
2019-05-19T11:27:39.275Z,990.50
2019-05-19T11:28:39.291Z,990.44
2019-05-19T11:29:39.276Z,990.48
2019-05-19T11:30:39.253Z,990.43
2019-05-19T11:31:39.252Z,990.49
2019-05-19T11:32:39.232Z,990.46
2019-05-19T11:33:39.232Z,990.46
2019-05-19T11:34:39.237Z,990.45
2019-05-19T11:35:39.217Z,990.43
2019-05-19T11:36:39.209Z,990.49
2019-05-19T11:37:39.198Z,990.39
2019-05-19T11:38:39.191Z,990.41
2019-05-19T11:39:39.182Z,990.46
2019-05-19T11:40:39.265Z,990.45
2019-05-19T11:41:39.194Z,990.41
2019-05-19T11:42:39.165Z,990.40
2019-05-19T11:43:39.154Z,990.45
2019-05-19T11:44:39.145Z,990.37
2019-05-19T11:45:39.151Z,990.47
2019-05-19T11:46:39.141Z,990.38
2019-05-19T11:47:39.142Z,990.42
2019-05-19T11:48:39.177Z,990.43
2019-05-19T11:49:39.112Z,990.42
2019-05-19T11:50:42.018Z,990.44
2019-05-19T11:51:39.106Z,990.39
2019-05-19T11:52:39.089Z,990.39
2019-05-19T11:53:39.081Z,990.37
2019-05-19T11:54:39.094Z,990.35
2019-05-19T11:55:39.066Z,990.36
2019-05-19T11:56:39.059Z,990.43
2019-05-19T11:57:39.071Z,990.34
2019-05-19T11:58:39.050Z,990.33
2019-05-19T11:59:39.054Z,990.28
2019-05-19T12:00:39.049Z,990.26
2019-05-19T12:01:39.031Z,990.27
2019-05-19T12:02:39.028Z,990.29
2019-05-19T12:03:39.034Z,990.31
2019-05-19T12:04:39.044Z,990.30
2019-05-19T12:05:39.055Z,990.25
2019-05-19T12:06:40.137Z,990.28
2019-05-19T12:07:39.143Z,990.28
2019-05-19T12:08:39.065Z,990.27
2019-05-19T12:09:39.067Z,990.30
2019-05-19T12:10:39.064Z,990.27
2019-05-19T12:11:39.048Z,990.28
2019-05-19T12:12:39.046Z,990.23
2019-05-19T12:13:39.077Z,990.26
2019-05-19T12:14:39.051Z,990.27
2019-05-19T12:15:39.043Z,990.24
2019-05-19T12:16:39.038Z,990.28
2019-05-19T12:17:39.025Z,990.25
2019-05-19T12:18:39.032Z,990.21
2019-05-19T12:19:39.051Z,990.19
2019-05-19T12:20:39.005Z,990.14
2019-05-19T12:21:39.005Z,990.20
2019-05-19T12:22:38.992Z,990.15
2019-05-19T12:23:38.980Z,990.16
2019-05-19T12:24:38.979Z,990.21
2019-05-19T12:25:38.981Z,990.20
2019-05-19T12:26:38.967Z,990.17
2019-05-19T12:27:38.950Z,990.15
2019-05-19T12:28:38.948Z,990.09